Etusivu
METAR-TAF:

METAR-TAF

Lentoasemat :

Rota, Mariaanit, Yhdysvallat

Leveyspiiri: 14-11N, Pituuspiiri: 145-15E, korkeus merenpinnasta: 185 m

Tämänhetkinen sää

Tämä raportti tehtiin 11 tuntia ja 8 minuuttia sitten, kello 09.50 UTC
Tuuli 3 kn lännestä/luoteesta
Lämpötila 25°C
Kosteus 89%
Ilmanpaine 1011 hPa
Näkyvyys: 11.3 km
Muutamia pilviä 1500 ft:n korkeudessa
Hajonneita pilviä 12000 ft:n korkeudessa

METAR: PGRO 160950Z 29003KT 7SM FEW015 BKN120 25/23 A2985 RMK WIND DATA ESTIMATED LAST

Aika: 06:58 (20:58 UTC)

Sääennuste

Tämä raportti tehtiin 15 tuntia ja 2 minuuttia sitten, kello 05.56 UTC
Ennuste voimassa 16. päivästä klo 06 UTC - 17. päivään klo 06 UTC
Tuuli 6 kn eri suunnista
Näkyvyys: 10 km
Muutamia pilviä 1800 ft:n korkeudessa
Hajanaisia pilviä 5000 ft:n korkeudessa
Hajanaisia pilviä 12000 ft:n korkeudessa
sadekuuroja näköpiirissä

TAF: PGRO 160556Z 1606/1706 VRB06KT P6SM VCSH FEW018 SCT050 SCT120

Säähavainnot ja -ennusteet yli 4000 lentoasemalta (METAR- ja TAF-raportit).

Käytössä olevat sääasemat on merkitty karttaan keltaisilla ja punaisilla pisteillä.

Aseta hiiri pisteen päälle nähdäksesi sääaseman nimen.

Klikkaa sitten nähdäksesi säähavainnot ja -ennusteet.

Kartan vaihtaminen: klikkaa mustalla rastilla varustettuja vihreitä pisteitä, niin voit zoomata sisään; viivalla varustettua vihreää pistettä, niin voit zoomata ulos tai vihreitä nuolia, niin pääset viereisille kartoille.


METAR-TAF: